Pagrindinis puslapis
METAR-TAF:

METAR-TAF

Oro uostai :

Bažė, Pietų Rio Grandė, Brazilija

platuma: 31-21S, ilguma: 054-07W, Aukštis: 180 m

Dabartinis oras

Ataskaita buvo paskelbta 51 minutes, ne 19:00 UTC
Vėjas 11 kt iš Pietvakarių
Temperatūra 24°C
Drėgmė 36%
Slėgis 1010 hPa
Matomumas 10 km arba daugiau
nėra debesų žemiau 1500 m ir nėra kamuolinių lietaus debesų

METAR: SBBG 051900Z 22011KT CAVOK 24/08 Q1010

Laikas: 16:51 (19:51 UTC)

Prognozė

Ataskaita buvo paskelbta 4 valandos ir 51 minutes, ne 15:00 UTC
Prognozė galioja nuo 05 metu 18 UTC su 06 metu 18 UTC
Vėjas 10 kt iš Pietų
Matomumas 10 km arba daugiau
nėra debesų žemiau 1500 m ir nėra kamuolinių lietaus debesų

TAF: SBBG 051500Z 0518/0618 19010KT CAVOK TN14/0608Z TX28/0617Z RMK PCO

Orai ataskaitas ir orų prognozės (METAR, TAF).

turimą stotys yra geltonos ir raudonos taškus žemėlapyje.

Perkelti pele per norėdami pamatyti stoties vardą.

Tada spustelėkite, norėdami matyti oro stebėjimo ir prognozės.

Norėdami pakeisti žemėlapį: spustelėkite ant žalios mygtukų su juodo kryžiaus žemyn,; žalią mygtuką su brūkšneliu, jei norite nutolinti; arba žalių rodyklių gretimoms žemėlapius.


METAR-TAF: